createdAt,value
2018-03-25T00:01:50.822Z,20.80
2018-03-25T00:04:18.472Z,20.37
2018-03-25T00:06:46.471Z,18.90
2018-03-25T00:09:14.082Z,18.37
2018-03-25T00:11:41.701Z,20.83
2018-03-25T00:14:09.311Z,18.20
2018-03-25T00:16:36.934Z,18.33
2018-03-25T00:19:04.701Z,20.20
2018-03-25T00:21:32.286Z,19.83
2018-03-25T00:24:00.353Z,18.93
2018-03-25T00:26:28.298Z,17.90
2018-03-25T00:28:56.465Z,20.00
2018-03-25T00:31:24.406Z,19.73
2018-03-25T00:33:52.501Z,17.77
2018-03-25T00:36:20.790Z,18.13
2018-03-25T00:38:48.432Z,16.80
2018-03-25T00:41:16.080Z,17.17
2018-03-25T00:43:43.941Z,19.00
2018-03-25T00:46:11.608Z,16.30
2018-03-25T00:48:39.451Z,17.83
2018-03-25T00:51:07.041Z,18.50
2018-03-25T00:53:34.749Z,18.23
2018-03-25T00:56:02.774Z,16.70
2018-03-25T00:58:30.740Z,18.57
2018-03-25T01:00:58.706Z,15.33
2018-03-25T01:03:26.293Z,15.43
2018-03-25T01:05:54.238Z,17.13
2018-03-25T01:08:21.930Z,15.40
2018-03-25T01:10:49.528Z,16.30
2018-03-25T01:13:17.496Z,17.07
2018-03-25T01:18:52.044Z,16.23
2018-03-25T01:21:19.702Z,17.07
2018-03-25T01:23:47.309Z,17.00
2018-03-25T01:26:15.198Z,17.00
2018-03-25T01:28:42.803Z,16.27
2018-03-25T01:31:10.402Z,15.83
2018-03-25T01:33:38.215Z,18.07
2018-03-25T01:36:05.866Z,15.80
2018-03-25T01:38:33.469Z,16.63
2018-03-25T01:41:01.051Z,16.93
2018-03-25T01:43:28.667Z,18.60
2018-03-25T01:45:56.733Z,16.70
2018-03-25T01:48:24.331Z,17.33
2018-03-25T01:50:51.929Z,17.40
2018-03-25T01:53:19.542Z,18.60
2018-03-25T01:55:47.254Z,17.90
2018-03-25T01:58:14.913Z,18.60
2018-03-25T02:00:42.536Z,17.90
2018-03-25T02:03:10.192Z,17.20
2018-03-25T02:05:38.160Z,18.90
2018-03-25T02:08:05.850Z,18.07
2018-03-25T02:10:33.689Z,18.80
2018-03-25T02:13:01.348Z,18.47
2018-03-25T02:15:28.935Z,17.93
2018-03-25T02:17:56.627Z,19.30
2018-03-25T02:20:24.238Z,18.20
2018-03-25T02:22:51.901Z,17.30
2018-03-25T02:25:19.886Z,16.77
2018-03-25T02:27:47.569Z,18.07
2018-03-25T02:30:15.215Z,17.30
2018-03-25T02:32:42.843Z,18.77
2018-03-25T02:35:10.432Z,20.07
2018-03-25T02:37:38.138Z,16.77
2018-03-25T02:40:05.770Z,19.40
2018-03-25T02:42:34.131Z,17.50
2018-03-25T02:45:01.707Z,17.70
2018-03-25T02:47:29.330Z,19.90
2018-03-25T02:49:57.074Z,19.83
2018-03-25T02:52:25.190Z,18.57
2018-03-25T02:54:52.788Z,16.90
2018-03-25T02:57:20.428Z,18.47
2018-03-25T02:59:48.028Z,17.63
2018-03-25T03:02:15.785Z,17.83
2018-03-25T03:04:43.379Z,18.33
2018-03-25T03:07:11.264Z,17.23
2018-03-25T03:09:39.178Z,17.70
2018-03-25T03:12:07.045Z,20.47
2018-03-25T03:14:34.714Z,18.57
2018-03-25T03:17:02.345Z,18.30
2018-03-25T03:19:30.192Z,19.97
2018-03-25T03:21:57.856Z,18.20
2018-03-25T03:24:25.853Z,17.83
2018-03-25T03:26:53.586Z,19.37
2018-03-25T03:29:21.556Z,18.53
2018-03-25T03:31:49.454Z,16.73
2018-03-25T03:34:17.052Z,17.80
2018-03-25T03:36:44.738Z,17.93
2018-03-25T03:39:12.631Z,17.60
2018-03-25T03:41:40.657Z,20.17
2018-03-25T03:44:08.246Z,18.70
2018-03-25T03:46:35.914Z,16.90
2018-03-25T03:49:03.561Z,18.03
2018-03-25T03:51:31.443Z,18.70
2018-03-25T03:53:59.316Z,19.17
2018-03-25T03:56:27.282Z,18.23
2018-03-25T03:58:54.873Z,18.70
2018-03-25T04:01:22.816Z,18.10
2018-03-25T04:03:50.473Z,19.17
2018-03-25T04:06:18.079Z,19.90
2018-03-25T04:08:45.708Z,19.90
2018-03-25T04:11:13.414Z,18.63
2018-03-25T04:13:41.033Z,20.20
2018-03-25T04:16:08.614Z,20.87
2018-03-25T04:18:36.338Z,20.30
2018-03-25T04:21:03.977Z,20.30
2018-03-25T04:23:31.637Z,19.10
2018-03-25T04:25:59.540Z,20.10
2018-03-25T04:28:27.203Z,20.30
2018-03-25T04:30:55.272Z,19.97
2018-03-25T04:33:22.866Z,17.77
2018-03-25T04:35:50.505Z,21.23
2018-03-25T04:38:18.104Z,20.23
2018-03-25T04:40:46.124Z,21.37
2018-03-25T04:43:14.200Z,19.40
2018-03-25T04:45:41.784Z,20.30
2018-03-25T04:48:09.400Z,20.70
2018-03-25T04:50:37.288Z,19.70
2018-03-25T04:53:04.874Z,22.27
2018-03-25T04:55:32.524Z,20.53
2018-03-25T04:58:00.131Z,20.50
2018-03-25T05:00:27.870Z,21.70
2018-03-25T05:02:55.474Z,21.60
2018-03-25T05:05:23.055Z,21.77
2018-03-25T05:07:51.031Z,22.67
2018-03-25T05:10:18.740Z,20.80
2018-03-25T05:12:46.339Z,22.30
2018-03-25T05:15:14.323Z,20.43
2018-03-25T05:17:42.035Z,19.20
2018-03-25T05:20:09.999Z,23.00
2018-03-25T05:22:37.576Z,20.17
2018-03-25T05:25:05.248Z,22.30
2018-03-25T05:27:33.036Z,20.90
2018-03-25T05:30:00.707Z,23.70
2018-03-25T05:32:28.570Z,20.00
2018-03-25T05:34:56.210Z,22.33
2018-03-25T05:37:23.808Z,23.10
2018-03-25T05:39:51.465Z,23.23
2018-03-25T05:42:19.060Z,24.37
2018-03-25T05:44:46.842Z,22.37
2018-03-25T05:47:14.583Z,22.10
2018-03-25T05:49:42.375Z,23.73
2018-03-25T05:52:10.046Z,22.60
2018-03-25T05:54:37.725Z,23.40
2018-03-25T05:57:05.317Z,24.10
2018-03-25T05:59:32.941Z,23.20
2018-03-25T06:02:00.688Z,22.40
2018-03-25T06:04:28.694Z,25.83
2018-03-25T06:06:56.559Z,26.37
2018-03-25T06:09:24.474Z,22.43
2018-03-25T06:11:52.087Z,23.93
2018-03-25T06:14:19.707Z,24.60
2018-03-25T06:16:47.418Z,24.20
2018-03-25T06:19:15.001Z,24.00
2018-03-25T06:21:42.677Z,24.70
2018-03-25T06:24:10.689Z,24.40
2018-03-25T06:26:38.347Z,22.03
2018-03-25T06:29:05.940Z,22.20
2018-03-25T06:31:33.635Z,22.70
2018-03-25T06:34:01.219Z,22.73
2018-03-25T06:36:28.814Z,26.27
2018-03-25T06:38:56.439Z,26.00
2018-03-25T06:41:24.570Z,24.20
2018-03-25T06:43:52.227Z,24.30
2018-03-25T06:46:19.900Z,25.63
2018-03-25T06:48:47.612Z,24.73
2018-03-25T06:51:15.271Z,25.10
2018-03-25T06:53:42.907Z,24.60
2018-03-25T06:56:10.535Z,25.87
2018-03-25T06:58:38.394Z,25.90
2018-03-25T07:01:06.029Z,24.33
2018-03-25T07:03:34.023Z,26.53
2018-03-25T07:06:01.891Z,24.13
2018-03-25T07:08:29.527Z,27.53
2018-03-25T07:10:57.272Z,26.30
2018-03-25T07:13:25.284Z,24.37
2018-03-25T07:15:53.255Z,23.57
2018-03-25T07:18:20.870Z,24.83
2018-03-25T07:20:48.486Z,24.57
2018-03-25T07:23:17.266Z,23.00
2018-03-25T07:25:45.897Z,24.40
2018-03-25T07:28:14.521Z,23.17
2018-03-25T07:30:42.200Z,24.83
2018-03-25T07:33:10.923Z,23.63
2018-03-25T07:35:38.630Z,25.70
2018-03-25T07:38:06.438Z,25.70
2018-03-25T07:40:34.060Z,28.13
2018-03-25T07:43:02.149Z,25.87
2018-03-25T07:45:29.814Z,23.87
2018-03-25T07:47:57.547Z,25.20
2018-03-25T07:50:25.153Z,24.10
2018-03-25T07:52:52.775Z,25.57
2018-03-25T07:55:20.424Z,26.47
2018-03-25T07:57:48.031Z,27.93
2018-03-25T08:00:15.861Z,25.40
2018-03-25T08:02:43.996Z,24.57
2018-03-25T08:05:11.589Z,24.53
2018-03-25T08:07:39.178Z,24.63
2018-03-25T08:10:06.879Z,28.00
2018-03-25T08:12:34.516Z,24.70
2018-03-25T08:15:02.354Z,23.10
2018-03-25T08:17:30.024Z,26.23
2018-03-25T08:19:57.905Z,26.13
2018-03-25T08:22:25.736Z,27.30
2018-03-25T08:24:53.426Z,27.20
2018-03-25T08:27:21.065Z,25.90
2018-03-25T08:29:48.685Z,24.53
2018-03-25T08:32:16.265Z,24.80
2018-03-25T08:34:43.980Z,25.40
2018-03-25T08:37:11.650Z,25.43
2018-03-25T08:39:39.906Z,24.80
2018-03-25T08:42:08.055Z,25.23
2018-03-25T08:44:35.653Z,23.73
2018-03-25T08:47:03.235Z,25.30
2018-03-25T08:49:30.965Z,26.30
2018-03-25T08:51:58.628Z,24.73
2018-03-25T08:54:26.257Z,28.03
2018-03-25T08:56:54.287Z,25.73
2018-03-25T08:59:22.250Z,25.60
2018-03-25T09:01:49.902Z,27.40
2018-03-25T09:04:17.525Z,25.93
2018-03-25T09:06:45.210Z,26.70
2018-03-25T09:09:12.865Z,26.10
2018-03-25T09:11:40.470Z,26.60
2018-03-25T09:14:08.081Z,27.10
2018-03-25T09:16:36.160Z,26.07
2018-03-25T09:19:03.767Z,27.83
2018-03-25T09:21:31.448Z,26.30
2018-03-25T09:23:59.111Z,25.50
2018-03-25T09:26:26.938Z,26.97
2018-03-25T09:28:54.535Z,26.27
2018-03-25T09:31:22.465Z,26.53
2018-03-25T09:33:50.355Z,28.13
2018-03-25T09:36:18.310Z,27.27
2018-03-25T09:38:45.968Z,28.17
2018-03-25T09:41:13.590Z,26.67
2018-03-25T09:43:41.187Z,24.83
2018-03-25T09:46:08.842Z,28.30
2018-03-25T09:48:36.480Z,26.40
2018-03-25T09:51:04.105Z,26.60
2018-03-25T09:53:35.183Z,26.37
2018-03-25T09:56:02.775Z,28.07
2018-03-25T09:58:30.396Z,25.10
2018-03-25T10:01:03.813Z,26.80
2018-03-25T10:03:31.878Z,25.30
2018-03-25T10:05:59.620Z,24.23
2018-03-25T10:08:29.823Z,26.70
2018-03-25T10:10:57.463Z,27.30
2018-03-25T10:13:25.109Z,26.47
2018-03-25T10:15:52.754Z,26.47
2018-03-25T10:18:20.750Z,24.30
2018-03-25T10:20:48.370Z,25.37
2018-03-25T10:23:16.390Z,25.40
2018-03-25T10:25:44.027Z,24.80
2018-03-25T10:28:11.628Z,25.83
2018-03-25T10:30:39.269Z,24.17
2018-03-25T10:33:07.063Z,27.17
2018-03-25T10:35:35.154Z,25.57
2018-03-25T10:38:02.828Z,25.13
2018-03-25T10:40:30.418Z,26.33
2018-03-25T10:42:58.046Z,24.33
2018-03-25T10:45:25.655Z,25.73
2018-03-25T10:47:54.299Z,26.93
2018-03-25T10:50:21.900Z,26.63
2018-03-25T10:52:49.496Z,25.07
2018-03-25T10:55:17.159Z,25.10
2018-03-25T10:57:44.780Z,25.20
2018-03-25T11:00:12.491Z,25.30
2018-03-25T11:02:40.116Z,29.77
2018-03-25T11:05:07.734Z,29.60
2018-03-25T11:07:35.745Z,25.30
2018-03-25T11:10:03.386Z,25.07
2018-03-25T11:12:31.123Z,24.70
2018-03-25T11:15:02.697Z,26.30
2018-03-25T11:17:30.312Z,24.60
2018-03-25T11:19:58.278Z,21.17
2018-03-25T11:22:25.962Z,23.50
2018-03-25T11:24:53.559Z,22.57
2018-03-25T11:27:21.289Z,25.23
2018-03-25T11:29:49.138Z,23.40
2018-03-25T11:32:16.768Z,23.63
2018-03-25T11:34:44.459Z,24.33
2018-03-25T11:37:12.108Z,27.23
2018-03-25T11:39:40.161Z,23.50
2018-03-25T11:42:08.021Z,22.20
2018-03-25T11:44:35.694Z,22.87
2018-03-25T11:47:03.353Z,23.83
2018-03-25T11:49:31.223Z,22.73
2018-03-25T11:51:58.863Z,22.90
2018-03-25T11:54:26.752Z,24.10
2018-03-25T11:56:54.389Z,22.53
2018-03-25T11:59:22.479Z,17.60
2018-03-25T12:01:50.375Z,19.93
2018-03-25T12:04:17.990Z,19.60
2018-03-25T12:06:45.639Z,21.17
2018-03-25T12:09:13.648Z,19.67
2018-03-25T12:11:41.405Z,20.33
2018-03-25T12:14:09.387Z,20.20
2018-03-25T12:16:36.980Z,21.30
2018-03-25T12:19:05.015Z,19.80
2018-03-25T12:21:33.088Z,23.33
2018-03-25T12:24:00.673Z,20.67
2018-03-25T12:26:28.287Z,20.77
2018-03-25T12:28:56.582Z,20.70
2018-03-25T12:31:24.437Z,19.73
2018-03-25T12:33:52.432Z,17.40
2018-03-25T12:36:20.391Z,17.53
2018-03-25T12:38:47.982Z,18.90
2018-03-25T12:41:15.929Z,18.27
2018-03-25T12:43:43.546Z,18.93
2018-03-25T12:46:11.511Z,19.10
2018-03-25T12:48:39.100Z,18.63
2018-03-25T12:51:06.703Z,18.70
2018-03-25T12:53:34.332Z,19.40
2018-03-25T12:56:02.060Z,17.60
2018-03-25T12:58:29.660Z,17.30
2018-03-25T13:00:57.433Z,17.50
2018-03-25T13:03:25.022Z,17.30
2018-03-25T13:05:52.876Z,16.90
2018-03-25T13:08:20.884Z,16.37
2018-03-25T13:10:48.478Z,18.57
2018-03-25T13:13:16.079Z,18.27
2018-03-25T13:15:44.121Z,19.37
2018-03-25T13:18:11.775Z,20.20
2018-03-25T13:20:39.427Z,17.13
2018-03-25T13:23:07.068Z,18.20
2018-03-25T13:25:34.700Z,18.13
2018-03-25T13:28:02.370Z,18.50
2018-03-25T13:30:30.015Z,17.10
2018-03-25T13:32:57.622Z,19.47
2018-03-25T13:35:25.514Z,22.00
2018-03-25T13:37:53.159Z,22.30
2018-03-25T13:40:20.818Z,23.57
2018-03-25T13:42:48.436Z,24.63
2018-03-25T13:45:16.119Z,22.73
2018-03-25T13:47:43.746Z,23.03
2018-03-25T13:50:11.371Z,20.90
2018-03-25T13:52:39.056Z,22.10
2018-03-25T13:55:06.753Z,20.03
2018-03-25T13:57:34.349Z,19.40
2018-03-25T14:00:02.001Z,21.77
2018-03-25T14:02:29.601Z,19.20
2018-03-25T14:04:57.467Z,20.20
2018-03-25T14:07:25.094Z,21.23
2018-03-25T14:09:52.695Z,21.87
2018-03-25T14:12:20.329Z,25.23
2018-03-25T14:14:47.976Z,24.17
2018-03-25T14:17:15.621Z,21.30
2018-03-25T14:19:43.461Z,25.17
2018-03-25T14:22:11.319Z,24.47
2018-03-25T14:24:38.962Z,22.67
2018-03-25T14:27:06.557Z,22.50
2018-03-25T14:29:34.200Z,23.97
2018-03-25T14:32:01.873Z,24.63
2018-03-25T14:34:29.471Z,26.70
2018-03-25T14:36:57.143Z,26.70
2018-03-25T14:39:24.750Z,26.20
2018-03-25T14:41:52.708Z,27.23
2018-03-25T14:44:20.365Z,25.63
2018-03-25T14:46:47.970Z,28.07
2018-03-25T14:49:15.568Z,25.53
2018-03-25T14:51:43.306Z,26.17
2018-03-25T14:54:11.049Z,25.43
2018-03-25T14:56:38.658Z,26.00
2018-03-25T14:59:06.283Z,25.77
2018-03-25T15:01:33.919Z,26.70
2018-03-25T15:04:01.525Z,27.70
2018-03-25T15:06:29.300Z,28.67
2018-03-25T15:08:56.942Z,28.10
2018-03-25T15:11:24.937Z,29.63
2018-03-25T15:13:52.570Z,26.83
2018-03-25T15:16:20.226Z,28.23
2018-03-25T15:18:47.830Z,26.67
2018-03-25T15:21:15.444Z,27.70
2018-03-25T15:23:43.089Z,27.70
2018-03-25T15:26:10.703Z,28.13
2018-03-25T15:28:38.400Z,27.97
2018-03-25T15:31:06.264Z,29.70
2018-03-25T15:33:33.974Z,25.47
2018-03-25T15:36:01.999Z,30.60
2018-03-25T15:38:29.623Z,27.13
2018-03-25T15:40:57.332Z,27.67
2018-03-25T15:43:25.185Z,29.13
2018-03-25T15:45:52.831Z,27.07
2018-03-25T15:48:20.468Z,27.97
2018-03-25T15:50:48.479Z,28.27
2018-03-25T15:53:16.147Z,26.40
2018-03-25T15:55:43.808Z,29.53
2018-03-25T15:58:11.661Z,31.30
2018-03-25T16:00:39.241Z,30.47
2018-03-25T16:03:06.924Z,30.70
2018-03-25T16:05:34.525Z,31.37
2018-03-25T16:08:02.355Z,30.73
2018-03-25T16:10:29.997Z,32.27
2018-03-25T16:12:57.634Z,32.47
2018-03-25T16:15:25.350Z,31.83
2018-03-25T16:17:52.932Z,33.17
2018-03-25T16:20:20.610Z,32.37
2018-03-25T16:22:48.245Z,31.23
2018-03-25T16:25:15.974Z,32.43
2018-03-25T16:27:43.618Z,34.07
2018-03-25T16:30:11.247Z,34.30
2018-03-25T16:32:38.884Z,33.30
2018-03-25T16:35:06.507Z,32.37
2018-03-25T16:37:34.106Z,34.03
2018-03-25T16:40:01.817Z,37.33
2018-03-25T16:42:29.477Z,32.23
2018-03-25T16:44:57.377Z,34.87
2018-03-25T16:47:24.977Z,36.73
2018-03-25T16:49:52.891Z,38.87
2018-03-25T16:52:20.599Z,36.73
2018-03-25T16:54:48.252Z,37.20
2018-03-25T16:57:15.864Z,35.40
2018-03-25T16:59:43.918Z,35.77
2018-03-25T17:02:11.514Z,37.63
2018-03-25T17:04:39.137Z,36.77
2018-03-25T17:07:06.779Z,37.87
2018-03-25T17:09:34.755Z,37.23
2018-03-25T17:12:02.363Z,40.00
2018-03-25T17:14:29.986Z,37.50
2018-03-25T17:16:57.678Z,37.30
2018-03-25T17:19:25.446Z,39.30
2018-03-25T17:21:53.119Z,36.60
2018-03-25T17:24:21.090Z,37.90
2018-03-25T17:26:48.701Z,39.17
2018-03-25T17:29:16.603Z,40.40
2018-03-25T17:31:44.245Z,38.77
2018-03-25T17:34:11.872Z,38.77
2018-03-25T17:36:39.473Z,37.63
2018-03-25T17:39:07.371Z,40.70
2018-03-25T17:41:34.966Z,40.20
2018-03-25T17:44:02.761Z,39.93
2018-03-25T17:46:30.660Z,38.30
2018-03-25T17:48:58.253Z,36.90
2018-03-25T17:51:25.917Z,38.27
2018-03-25T17:53:53.548Z,40.50
2018-03-25T17:56:21.151Z,37.00
2018-03-25T17:58:48.773Z,39.20
2018-03-25T18:01:16.375Z,38.07
2018-03-25T18:03:43.993Z,41.40
2018-03-25T18:06:11.588Z,41.77
2018-03-25T18:08:39.227Z,38.93
2018-03-25T18:11:07.182Z,39.70
2018-03-25T18:13:35.048Z,38.50
2018-03-25T18:16:02.715Z,41.43
2018-03-25T18:18:30.681Z,38.73
2018-03-25T18:20:58.357Z,38.30
2018-03-25T18:23:25.977Z,39.90
2018-03-25T18:26:04.665Z,37.80
2018-03-25T18:28:32.597Z,39.83
2018-03-25T18:31:00.212Z,39.93
2018-03-25T18:33:27.908Z,38.97
2018-03-25T18:35:55.593Z,40.80
2018-03-25T18:38:23.230Z,41.00
2018-03-25T18:40:50.861Z,44.23
2018-03-25T18:43:18.550Z,38.70
2018-03-25T18:45:46.377Z,39.87
2018-03-25T18:48:13.974Z,40.23
2018-03-25T18:50:41.944Z,39.13
2018-03-25T18:53:09.626Z,41.53
2018-03-25T18:55:39.065Z,43.33
2018-03-25T18:58:06.946Z,42.97
2018-03-25T19:00:34.548Z,41.30
2018-03-25T19:03:02.311Z,41.77
2018-03-25T19:05:29.906Z,40.10
2018-03-25T19:07:57.548Z,40.80
2018-03-25T19:10:25.521Z,42.90
2018-03-25T19:12:53.507Z,41.40
2018-03-25T19:15:21.300Z,41.17
2018-03-25T19:17:48.902Z,41.73
2018-03-25T19:20:16.657Z,42.10
2018-03-25T19:22:44.328Z,42.00
2018-03-25T19:25:11.967Z,41.83
2018-03-25T19:27:39.627Z,40.27
2018-03-25T19:30:07.288Z,39.70
2018-03-25T19:32:35.079Z,42.20
2018-03-25T19:35:03.019Z,44.70
2018-03-25T19:37:30.586Z,43.73
2018-03-25T19:39:58.242Z,42.50
2018-03-25T19:42:25.873Z,41.13
2018-03-25T19:44:53.470Z,42.20
2018-03-25T19:47:21.117Z,42.30
2018-03-25T19:49:48.755Z,42.07
2018-03-25T19:52:16.365Z,42.00
2018-03-25T19:54:43.998Z,43.30
2018-03-25T19:57:11.588Z,46.50
2018-03-25T19:59:39.243Z,41.83
2018-03-25T20:02:06.872Z,42.10
2018-03-25T20:04:34.864Z,42.17
2018-03-25T20:07:02.462Z,42.93
2018-03-25T20:09:30.102Z,41.30
2018-03-25T20:11:57.806Z,41.53
2018-03-25T20:14:25.782Z,44.67
2018-03-25T20:16:53.757Z,42.70
2018-03-25T20:19:21.410Z,41.37
2018-03-25T20:21:49.428Z,38.57
2018-03-25T20:24:17.017Z,42.57
2018-03-25T20:26:44.874Z,43.40
2018-03-25T20:29:12.508Z,40.77
2018-03-25T20:31:40.120Z,40.23
2018-03-25T20:34:07.983Z,40.70
2018-03-25T20:36:35.627Z,38.37
2018-03-25T20:39:03.322Z,42.17
2018-03-25T20:41:30.920Z,40.70
2018-03-25T20:43:59.006Z,41.10
2018-03-25T20:46:26.619Z,41.30
2018-03-25T20:48:54.272Z,40.80
2018-03-25T20:51:21.929Z,40.93
2018-03-25T20:53:49.567Z,41.87
2018-03-25T20:56:17.231Z,39.30
2018-03-25T20:58:44.920Z,40.00
2018-03-25T21:01:12.713Z,40.63
2018-03-25T21:03:40.322Z,39.43
2018-03-25T21:06:07.912Z,38.80
2018-03-25T21:08:35.874Z,37.33
2018-03-25T21:11:03.468Z,36.37
2018-03-25T21:13:31.075Z,39.40
2018-03-25T21:15:59.377Z,37.37
2018-03-25T21:18:27.017Z,37.13
2018-03-25T21:20:54.607Z,34.57
2018-03-25T21:23:22.670Z,37.60
2018-03-25T21:25:50.288Z,36.77
2018-03-25T21:28:17.900Z,38.40
2018-03-25T21:30:45.520Z,37.23
2018-03-25T21:33:13.173Z,37.57
2018-03-25T21:35:40.781Z,36.60
2018-03-25T21:38:08.752Z,36.73
2018-03-25T21:40:36.418Z,36.03
2018-03-25T21:43:04.059Z,37.07
2018-03-25T21:45:31.945Z,37.60
2018-03-25T21:47:59.630Z,37.07
2018-03-25T21:50:27.350Z,37.63
2018-03-25T21:52:55.041Z,35.23
2018-03-25T21:55:22.916Z,37.07
2018-03-25T21:57:50.549Z,36.40
2018-03-25T22:00:18.414Z,35.47
2018-03-25T22:02:46.057Z,35.27
2018-03-25T22:05:13.649Z,33.40
2018-03-25T22:07:41.728Z,33.37
2018-03-25T22:10:09.584Z,36.60
2018-03-25T22:12:37.162Z,36.97
2018-03-25T22:15:04.899Z,34.73
2018-03-25T22:17:32.503Z,36.27
2018-03-25T22:20:00.129Z,33.70
2018-03-25T22:22:28.280Z,32.00
2018-03-25T22:24:55.933Z,34.00
2018-03-25T22:27:23.829Z,37.13
2018-03-25T22:29:51.654Z,36.77
2018-03-25T22:32:19.293Z,34.47
2018-03-25T22:34:46.974Z,35.47
2018-03-25T22:37:14.575Z,35.97
2018-03-25T22:39:42.190Z,37.77
2018-03-25T22:42:09.774Z,34.50
2018-03-25T22:44:37.414Z,36.30
2018-03-25T22:47:05.069Z,36.47
2018-03-25T22:49:32.675Z,36.07
2018-03-25T22:52:00.281Z,34.30
2018-03-25T22:54:27.892Z,36.37
2018-03-25T22:56:55.518Z,31.40
2018-03-25T22:59:23.213Z,34.47
2018-03-25T23:01:50.804Z,36.10
2018-03-25T23:04:18.442Z,35.70
2018-03-25T23:06:46.290Z,35.93
2018-03-25T23:09:13.888Z,34.37
2018-03-25T23:11:41.476Z,35.53
2018-03-25T23:14:09.197Z,35.47
2018-03-25T23:16:36.854Z,32.93
2018-03-25T23:19:04.455Z,34.67
2018-03-25T23:21:32.052Z,33.60
2018-03-25T23:23:59.695Z,34.30
2018-03-25T23:26:27.280Z,32.83
2018-03-25T23:28:55.178Z,31.77
2018-03-25T23:31:22.869Z,34.97
2018-03-25T23:33:50.524Z,34.40
2018-03-25T23:36:18.197Z,33.87
2018-03-25T23:38:45.793Z,29.83
2018-03-25T23:41:13.400Z,34.50
2018-03-25T23:43:41.424Z,30.37
2018-03-25T23:46:09.032Z,33.33
2018-03-25T23:48:36.653Z,32.50
2018-03-25T23:51:04.304Z,31.17
2018-03-25T23:53:31.906Z,33.80
2018-03-25T23:55:59.536Z,31.50
2018-03-25T23:58:27.241Z,31.17
